Hawk Point, MO (63349)

9:34 PM CST on March 01, 2015 (GMT -0600)
Fence Post Weather | Change Station
CLOSE
Current Station
Personal Weather Station
Location: Warrenton, MO
Elevation: 823 ft
Nearby Weather Stations

Elev 823 ft 38.79 °N, 91.11 °W | Updated 3 minutes ago

Clear
Clear
20.6 °F
Feels Like 21 °F
N
0.0
Wind Variable Wind from West
Gusts 7.0 mph

Today
High -- | Low -- °F
--% Chance of Precip.
Yesterday
High -- | Low -- °F
Precip. -- in
6:37 AM 5:57 PM
Waxing Gibbous, 89% visible
Pressure 30.47 in
Visibility 9.0 miles
Clouds Few 2600 ft
Few 3500 ft
Windchill 21 °F
Dew Point 18 °F
Humidity 89%
Rainfall 0.02 in
Snow Depth Not available.
UV 0 out of 12
Pollen .50 out of 12
Air Quality Not available.
Flu Activity Not available.
METAR KFYG 020315Z AUTO 00000KT 9SM FEW026 FEW035 M05/M07 A3047 RMK AO2

More Conditions Fewer Conditions

Pressure 30.47 in
Visibility 9.0 miles
Clouds Few 2600 ft
Few 3500 ft
Windchill 21 °F
Dew Point 18 °F
Humidity 89%
Rainfall 0.02 in
Snow Depth Not available.
UV 0 out of 12
Pollen .50 out of 12
Air Quality Not available.
Flu Activity Not available.
METAR KFYG 020315Z AUTO 00000KT 9SM FEW026 FEW035 M05/M07 A3047 RMK AO2

More Conditions Fewer Conditions

10-Day Weather Forecast

Almanac

Astronomy

Mar. 01, 2015 Rise Set
Actual Time
Civil Twilight
Nautical Twilight
Astronomical Twilight
Moon
Length of Visible Light
Length of Day
Tomorrow will be .
, % of the Moon is Illuminated

Today's Extremes

State Highs State Lows

Community

WunderPhotos

Upload Photos

1,801,717 photos uploaded!

WunderBlogs® & News

Nearby

Air Quality

  Air Quality AQ Index Pollutant
Not available.

Snow Depth

Station Depth Elevation

Earthquake Activity

City Distance Mag. Time & Date
Minimum magnitude displayed is 2.5.

Coastal Water Temperatures

Place Temperature

Nearby Weather Stations